Time;durP1;ratioP1;P1;durP2;ratioP2;P2;SDS_P1;SDS_P2;PMS_P1;PMS_P2;Temp;Humidity;BMP_temperature;BMP_pressure;BME280_temperature;BME280_humidity;BME280_pressure;Samples;Min_cycle;Max_cycle;Signal;HPM_P1;HPM_P2
2023/01/26 00:01:26;;;;;;;2.40;2.20;;;4.00;99.90;;;;;;5098016;28;20385;-78
2023/01/26 00:03:53;;;;;;;2.33;1.80;;;4.00;99.90;;;;;;5111682;28;20043;-80
2023/01/26 00:06:22;;;;;;;4.20;2.15;;;4.00;99.90;;;;;;5111403;28;20054;-79
2023/01/26 00:08:53;;;;;;;3.75;2.22;;;4.00;99.90;;;;;;5111031;28;20584;-79
2023/01/26 00:11:25;;;;;;;1.98;1.77;;;4.00;99.90;;;;;;5108639;28;20790;-79
2023/01/26 00:13:53;;;;;;;2.58;2.08;;;4.00;99.90;;;;;;5111691;28;20052;-81
2023/01/26 00:16:21;;;;;;;2.38;2.17;;;4.00;99.90;;;;;;5111576;28;20074;-81
2023/01/26 00:18:48;;;;;;;2.95;2.65;;;4.00;99.90;;;;;;5093263;28;20574;-78
2023/01/26 00:21:19;;;;;;;2.88;1.90;;;4.00;99.90;;;;;;5090974;28;20105;-80
2023/01/26 00:23:47;;;;;;;2.50;2.30;;;4.00;99.90;;;;;;5091426;28;20487;-79
2023/01/26 00:26:18;;;;;;;3.75;2.33;;;4.00;99.90;;;;;;5090903;28;20576;-82
2023/01/26 00:28:45;;;;;;;2.83;2.30;;;4.00;99.90;;;;;;5099921;28;20058;-80
2023/01/26 00:31:17;;;;;;;5.78;2.28;;;4.00;99.90;;;;;;5113768;28;20062;-80
2023/01/26 00:33:44;;;;;;;3.25;1.77;;;4.00;99.90;;;;;;5114950;28;20059;-80
2023/01/26 00:36:12;;;;;;;2.20;1.92;;;4.00;99.90;;;;;;5114757;27;20054;-80
2023/01/26 00:38:41;;;;;;;2.65;2.00;;;4.10;99.90;;;;;;5111584;28;20077;-79
2023/01/26 00:42:05;;;;;;;2.30;2.10;;;4.10;99.90;;;;;;5114553;28;20083;-79
2023/01/26 00:43:58;;;;;;;3.15;1.90;;;4.10;99.90;;;;;;5114645;28;20079;-79
2023/01/26 00:46:26;;;;;;;3.83;1.73;;;4.10;99.90;;;;;;5112967;28;20043;-80
2023/01/26 00:48:53;;;;;;;1.92;1.73;;;4.10;99.90;;;;;;5114374;28;20468;-81
2023/01/26 00:51:21;;;;;;;3.38;1.60;;;4.10;99.90;;;;;;5112990;28;20059;-81
2023/01/26 00:53:48;;;;;;;1.75;1.50;;;4.20;99.90;;;;;;5112888;28;20057;-79
2023/01/26 00:56:16;;;;;;;1.88;1.63;;;4.20;99.90;;;;;;5111085;28;20047;-81
2023/01/26 00:58:44;;;;;;;2.50;1.55;;;4.20;99.90;;;;;;5114612;27;20051;-80
2023/01/26 01:01:13;;;;;;;2.22;1.85;;;4.20;99.90;;;;;;5113100;28;20074;-80
2023/01/26 01:03:42;;;;;;;1.80;1.70;;;4.20;99.90;;;;;;5111277;28;20055;-80
2023/01/26 01:06:10;;;;;;;3.00;1.70;;;4.20;99.90;;;;;;5112729;28;20104;-79
2023/01/26 01:08:37;;;;;;;3.65;1.98;;;4.20;99.90;;;;;;5113700;28;20062;-79
2023/01/26 01:11:07;;;;;;;3.65;2.00;;;4.10;99.90;;;;;;5096135;28;20388;-79
2023/01/26 01:13:35;;;;;;;2.03;1.60;;;4.10;99.90;;;;;;5083095;28;20045;-80
2023/01/26 01:16:06;;;;;;;2.35;1.80;;;4.10;99.90;;;;;;5072005;28;20058;-81
2023/01/26 01:18:36;;;;;;;3.05;2.05;;;4.10;99.90;;;;;;5086367;28;20052;-79
2023/01/26 01:21:07;;;;;;;2.30;2.10;;;4.10;99.90;;;;;;5092207;28;20500;-80
2023/01/26 01:23:35;;;;;;;3.35;2.28;;;4.10;99.90;;;;;;5108032;28;20088;-80
2023/01/26 01:26:03;;;;;;;2.35;2.13;;;4.10;99.90;;;;;;5113499;28;20051;-78
2023/01/26 01:28:31;;;;;;;3.40;1.90;;;4.10;99.90;;;;;;5113350;28;20051;-79
2023/01/26 01:30:59;;;;;;;5.20;2.72;;;4.10;99.90;;;;;;5109220;28;20071;-78
2023/01/26 01:33:26;;;;;;;3.45;1.83;;;4.10;99.90;;;;;;5092887;28;20052;-80
2023/01/26 01:36:00;;;;;;;3.78;2.30;;;4.10;99.90;;;;;;5108697;28;20142;-80
2023/01/26 01:38:29;;;;;;;3.97;2.20;;;4.10;99.90;;;;;;5075001;28;20598;-80
2023/01/26 01:40:57;;;;;;;2.88;2.10;;;4.10;99.90;;;;;;5100620;28;20143;-80
2023/01/26 01:43:28;;;;;;;3.67;1.90;;;4.10;99.90;;;;;;5113411;28;20055;-80
2023/01/26 01:45:56;;;;;;;2.35;2.15;;;4.10;99.90;;;;;;5113179;28;20055;-80
2023/01/26 01:48:28;;;;;;;2.65;2.28;;;4.10;99.90;;;;;;5112031;28;20048;-80
2023/01/26 01:51:04;;;;;;;3.78;2.80;;;4.10;99.90;;;;;;5110287;28;20363;-80
2023/01/26 01:53:35;;;;;;;2.83;2.35;;;4.00;99.90;;;;;;5094796;28;20048;-79
2023/01/26 01:56:07;;;;;;;3.05;2.10;;;4.00;99.90;;;;;;5113017;28;20507;-79
2023/01/26 01:58:38;;;;;;;2.60;2.17;;;4.00;99.90;;;;;;5111807;28;20052;-80
2023/01/26 02:01:06;;;;;;;3.85;2.05;;;4.00;99.90;;;;;;5111817;28;20160;-80
2023/01/26 02:03:34;;;;;;;3.17;2.58;;;4.00;99.90;;;;;;5113236;27;20052;-80
2023/01/26 02:06:08;;;;;;;3.22;2.30;;;3.90;99.90;;;;;;5111511;28;20069;-79
2023/01/26 02:08:40;;;;;;;2.47;2.25;;;4.00;99.90;;;;;;5109942;28;20082;-80
2023/01/26 02:11:11;;;;;;;3.85;2.30;;;4.00;99.90;;;;;;5113127;28;20136;-79
2023/01/26 02:13:41;;;;;;;2.28;2.08;;;4.00;99.90;;;;;;5111782;28;20385;-81
2023/01/26 02:16:09;;;;;;;2.70;2.50;;;4.00;99.90;;;;;;5110666;28;20047;-81
2023/01/26 02:18:36;;;;;;;3.17;2.28;;;4.00;99.90;;;;;;5092479;28;20101;-79
2023/01/26 02:21:08;;;;;;;4.20;2.67;;;4.00;99.90;;;;;;5091187;28;20155;-81
2023/01/26 02:23:49;;;;;;;4.18;2.25;;;4.00;99.90;;;;;;5091249;28;20412;-80
2023/01/26 02:26:20;;;;;;;5.07;2.70;;;4.00;99.90;;;;;;5117272;27;20047;-80
2023/01/26 02:28:48;;;;;;;2.67;2.33;;;3.90;99.90;;;;;;5114867;28;20480;-79
2023/01/26 02:31:17;;;;;;;3.13;2.08;;;3.90;99.90;;;;;;5113333;28;20393;-80
2023/01/26 02:33:47;;;;;;;2.17;1.98;;;4.00;99.90;;;;;;5113085;28;20043;-79
2023/01/26 02:36:19;;;;;;;2.30;2.10;;;4.00;99.90;;;;;;5112235;28;20044;-80
2023/01/26 02:38:59;;;;;;;1.75;1.65;;;3.90;99.90;;;;;;5111913;28;20043;-80
2023/01/26 02:44:14;;;;;;;4.88;2.08;;;4.00;99.90;;;;;;5092919;28;20487;-80
2023/01/26 02:46:42;;;;;;;3.55;2.22;;;3.90;99.90;;;;;;5111483;28;20047;-81
2023/01/26 02:51:55;;;;;;;5.35;2.50;;;3.90;99.90;;;;;;5111822;28;20092;-80
2023/01/26 02:57:09;;;;;;;2.38;2.17;;;3.90;99.90;;;;;;5110859;28;20051;-79
2023/01/26 02:59:36;;;;;;;4.75;2.25;;;3.90;99.90;;;;;;5110802;28;20116;-78
2023/01/26 03:02:04;;;;;;;2.38;2.17;;;3.90;99.90;;;;;;5109017;28;20100;-80
2023/01/26 03:04:31;;;;;;;2.85;2.40;;;3.90;99.90;;;;;;5111611;28;20051;-80
2023/01/26 03:06:59;;;;;;;4.25;2.75;;;3.90;99.90;;;;;;5093288;28;20067;-78
2023/01/26 03:09:27;;;;;;;3.72;2.15;;;4.00;99.90;;;;;;5110017;28;20052;-78
2023/01/26 03:11:54;;;;;;;3.35;2.17;;;3.90;99.90;;;;;;5108478;28;20142;-78
2023/01/26 03:14:23;;;;;;;2.20;1.80;;;3.90;99.90;;;;;;5110254;28;20507;-79
2023/01/26 03:16:51;;;;;;;2.22;1.98;;;3.80;99.90;;;;;;5110451;28;20055;-79
2023/01/26 03:27:53;;;;;;;4.75;1.98;;;3.80;99.90;;;;;;5069468;28;20091;-79
2023/01/26 03:30:22;;;;;;;2.95;2.08;;;3.80;99.90;;;;;;5100090;28;20071;-78
2023/01/26 03:32:50;;;;;;;2.53;2.10;;;3.80;99.90;;;;;;5109737;28;20047;-78
2023/01/26 03:35:21;;;;;;;3.83;1.85;;;3.80;99.90;;;;;;5093023;28;20055;-78
2023/01/26 03:37:53;;;;;;;3.10;2.00;;;3.80;99.90;;;;;;5108117;28;20133;-78
2023/01/26 03:57:11;;;;;;;3.45;1.90;;;3.90;99.90;;;;;;5070082;28;20043;-81
2023/01/26 03:59:39;;;;;;;4.10;2.40;;;4.00;99.90;;;;;;5103673;28;20048;-78
2023/01/26 04:10:32;;;;;;;5.00;2.10;;;4.10;99.90;;;;;;5087535;28;20064;-79
2023/01/26 04:21:29;;;;;;;2.20;2.00;;;4.00;99.90;;;;;;5091296;28;20048;-71
2023/01/26 04:23:58;;;;;;;2.00;1.80;;;4.00;99.90;;;;;;5107344;28;20424;-70
2023/01/26 04:26:33;;;;;;;4.20;1.60;;;4.00;99.90;;;;;;5087861;28;20496;-70
2023/01/26 04:29:04;;;;;;;2.40;2.20;;;4.00;99.90;;;;;;5086919;28;20512;-78
2023/01/26 04:31:32;;;;;;;3.35;2.10;;;4.00;99.90;;;;;;5089571;28;20545;-79
2023/01/26 04:34:02;;;;;;;1.95;1.75;;;4.00;99.90;;;;;;5097503;28;20055;-79
2023/01/26 04:36:30;;;;;;;1.40;1.30;;;4.00;99.90;;;;;;5065067;28;20052;-79
2023/01/26 04:38:58;;;;;;;1.67;1.58;;;4.00;99.90;;;;;;5093935;28;20571;-79
2023/01/26 04:41:29;;;;;;;7.10;1.50;;;4.00;99.90;;;;;;5089989;28;20047;-79
2023/01/26 04:44:03;;;;;;;4.60;1.50;;;4.00;99.90;;;;;;5090555;28;20048;-70
2023/01/26 04:46:33;;;;;;;2.17;1.80;;;4.00;99.90;;;;;;5070788;28;20155;-77
2023/01/26 04:49:17;;;;;;;2.20;2.00;;;4.00;99.90;;;;;;5047655;28;20083;-78
2023/01/26 04:51:48;;;;;;;2.35;1.52;;;4.10;99.90;;;;;;5071570;28;20054;-78
2023/01/26 04:54:17;;;;;;;3.63;1.83;;;4.10;99.90;;;;;;5081424;28;20052;-78
2023/01/26 04:56:50;;;;;;;1.50;1.40;;;4.10;99.90;;;;;;5087025;28;20082;-78
2023/01/26 04:59:18;;;;;;;1.85;1.63;;;4.10;99.90;;;;;;5091302;28;20473;-79
2023/01/26 05:01:46;;;;;;;3.20;1.90;;;4.10;99.90;;;;;;5074527;28;20060;-81
2023/01/26 05:04:15;;;;;;;3.15;2.20;;;4.10;99.90;;;;;;5103013;28;20059;-77
2023/01/26 05:06:46;;;;;;;3.22;1.75;;;4.10;99.90;;;;;;5090237;28;20140;-82
2023/01/26 05:09:15;;;;;;;2.05;1.75;;;4.20;99.90;;;;;;5106702;27;20267;-81
2023/01/26 05:11:46;;;;;;;3.35;2.28;;;4.10;99.90;;;;;;5092254;28;20055;-79
2023/01/26 05:14:46;;;;;;;2.20;1.77;;;4.20;99.90;;;;;;5068399;28;20048;-78
2023/01/26 05:17:24;;;;;;;3.15;1.60;;;4.10;99.90;;;;;;5080935;28;20097;-72
2023/01/26 05:20:01;;;;;;;3.10;2.00;;;4.10;99.90;;;;;;5084408;28;20513;-72
2023/01/26 05:22:40;;;;;;;2.72;1.98;;;4.10;99.90;;;;;;5078576;28;20122;-80
2023/01/26 05:25:26;;;;;;;2.30;1.70;;;4.10;99.90;;;;;;5083024;28;20047;-79
2023/01/26 05:28:07;;;;;;;2.03;1.83;;;4.10;99.90;;;;;;5070248;28;20049;-80
2023/01/26 05:30:35;;;;;;;4.85;2.67;;;4.20;99.90;;;;;;5084629;28;20122;-80
2023/01/26 05:33:05;;;;;;;2.83;2.05;;;4.10;99.90;;;;;;5068461;28;20052;-80
2023/01/26 05:35:35;;;;;;;2.30;2.00;;;4.10;99.90;;;;;;5056398;28;20048;-79
2023/01/26 05:38:05;;;;;;;3.03;2.63;;;4.10;99.90;;;;;;5070449;28;20428;-81
2023/01/26 05:40:34;;;;;;;3.95;2.45;;;4.10;99.90;;;;;;5096396;28;20148;-81
2023/01/26 05:43:01;;;;;;;2.97;2.42;;;4.00;99.90;;;;;;5097640;28;20063;-71
2023/01/26 05:45:51;;;;;;;2.80;2.35;;;4.00;99.90;;;;;;5084353;28;20580;-72
2023/01/26 05:48:20;;;;;;;3.45;2.72;;;4.00;99.90;;;;;;5077151;28;20037;-72
2023/01/26 05:50:57;;;;;;;2.97;2.28;;;4.00;99.90;;;;;;5060768;28;20146;-71
2023/01/26 05:53:24;;;;;;;4.63;3.25;;;4.00;99.90;;;;;;5078081;28;20050;-72
2023/01/26 05:55:52;;;;;;;3.78;2.85;;;4.00;99.90;;;;;;5081711;28;20398;-72
2023/01/26 05:58:23;;;;;;;3.50;2.78;;;4.00;99.90;;;;;;5086605;28;20056;-71
2023/01/26 06:00:50;;;;;;;3.67;3.38;;;3.90;99.90;;;;;;5078747;28;20063;-72
2023/01/26 06:03:25;;;;;;;4.47;3.00;;;3.90;99.90;;;;;;5106520;27;20040;-81
2023/01/26 06:05:55;;;;;;;4.43;3.80;;;3.90;99.90;;;;;;5099980;28;20055;-79
2023/01/26 06:08:32;;;;;;;4.90;3.45;;;3.90;99.90;;;;;;5078630;28;20072;-80
2023/01/26 06:11:20;;;;;;;3.75;2.88;;;3.90;99.90;;;;;;5059518;28;20052;-79
2023/01/26 06:14:04;;;;;;;3.58;2.80;;;3.80;99.90;;;;;;5074582;28;20052;-80
2023/01/26 06:16:33;;;;;;;4.75;3.80;;;3.80;99.90;;;;;;5072964;28;20520;-80
2023/01/26 06:19:04;;;;;;;5.68;3.45;;;3.80;99.90;;;;;;5071205;28;20071;-78
2023/01/26 06:21:37;;;;;;;3.78;3.08;;;3.90;99.90;;;;;;5114808;27;20054;-77
2023/01/26 06:24:07;;;;;;;3.55;3.00;;;3.80;99.90;;;;;;5093437;28;20126;-78
2023/01/26 06:26:35;;;;;;;2.88;2.55;;;3.90;99.90;;;;;;5093528;28;20048;-78
2023/01/26 06:29:03;;;;;;;3.35;2.85;;;3.90;99.90;;;;;;5090765;28;20428;-78
2023/01/26 06:31:36;;;;;;;3.90;2.47;;;3.90;99.90;;;;;;5068484;28;20147;-70
2023/01/26 06:34:05;;;;;;;4.53;2.55;;;3.90;99.90;;;;;;5087504;28;20114;-78
2023/01/26 06:36:40;;;;;;;3.80;2.80;;;3.90;99.90;;;;;;5081186;28;20394;-78
2023/01/26 06:39:11;;;;;;;3.95;3.00;;;3.90;99.90;;;;;;5086634;28;20048;-78
2023/01/26 06:41:39;;;;;;;9.10;2.95;;;3.90;99.90;;;;;;5089428;28;20054;-77
2023/01/26 06:44:08;;;;;;;3.17;2.88;;;3.90;99.90;;;;;;5085672;28;20055;-71
2023/01/26 06:46:36;;;;;;;4.78;2.97;;;3.90;99.90;;;;;;5086577;28;20056;-70
2023/01/26 06:49:05;;;;;;;2.58;2.35;;;4.00;99.90;;;;;;5087655;28;20067;-70
2023/01/26 06:51:58;;;;;;;2.90;2.58;;;4.00;99.90;;;;;;5088486;28;20152;-70
2023/01/26 06:54:53;;;;;;;3.42;2.92;;;3.90;99.90;;;;;;5085929;28;20066;-71
2023/01/26 06:57:24;;;;;;;4.45;3.35;;;3.90;99.90;;;;;;5087607;28;20052;-70
2023/01/26 07:00:12;;;;;;;5.28;3.13;;;3.90;99.90;;;;;;5086520;28;20051;-71
2023/01/26 07:02:53;;;;;;;5.85;3.30;;;3.90;99.90;;;;;;5069969;28;20080;-72
2023/01/26 07:05:21;;;;;;;4.03;2.60;;;3.90;99.90;;;;;;5079834;28;20063;-71
2023/01/26 07:07:50;;;;;;;5.60;3.30;;;3.90;99.90;;;;;;5084609;28;20040;-70
2023/01/26 07:10:17;;;;;;;5.32;2.72;;;3.90;99.90;;;;;;5089532;28;20579;-70
2023/01/26 07:12:46;;;;;;;3.13;2.38;;;4.00;99.90;;;;;;5080818;28;20040;-71
2023/01/26 07:15:14;;;;;;;6.43;3.40;;;4.00;99.90;;;;;;5022890;28;20061;-70
2023/01/26 07:17:41;;;;;;;6.93;2.70;;;3.90;99.90;;;;;;5089404;28;20059;-70
2023/01/26 07:20:13;;;;;;;3.97;2.58;;;4.00;99.90;;;;;;5089150;28;20054;-71
2023/01/26 07:22:41;;;;;;;5.53;2.60;;;4.00;99.90;;;;;;5102600;28;20067;-72
2023/01/26 07:25:10;;;;;;;2.60;2.40;;;4.00;99.90;;;;;;5094653;28;20639;-71
2023/01/26 07:27:37;;;;;;;4.18;3.22;;;4.00;99.90;;;;;;5090165;28;20143;-72
2023/01/26 07:30:07;;;;;;;4.28;2.40;;;4.00;99.90;;;;;;5082427;28;20044;-71
2023/01/26 07:32:35;;;;;;;5.63;3.00;;;4.00;99.90;;;;;;5063864;28;20052;-71
2023/01/26 07:35:02;;;;;;;5.07;3.15;;;4.00;99.90;;;;;;5077998;28;20053;-71
2023/01/26 07:37:31;;;;;;;5.68;2.85;;;4.00;99.90;;;;;;5088824;28;20079;-72
2023/01/26 07:39:58;;;;;;;3.35;2.42;;;4.00;99.90;;;;;;5081048;28;20040;-71
2023/01/26 07:42:29;;;;;;;5.25;3.00;;;4.00;99.90;;;;;;5076321;28;20105;-73
2023/01/26 07:45:17;;;;;;;6.93;3.05;;;4.00;99.90;;;;;;5090257;28;20127;-72
2023/01/26 07:47:45;;;;;;;7.70;3.15;;;4.00;99.90;;;;;;5088894;28;20056;-72
2023/01/26 07:50:13;;;;;;;2.90;2.65;;;4.00;99.90;;;;;;5079292;28;20044;-71
2023/01/26 07:52:42;;;;;;;3.35;2.58;;;4.00;99.90;;;;;;5079765;28;20048;-72
2023/01/26 07:55:10;;;;;;;4.22;2.53;;;3.90;99.90;;;;;;5088955;28;20039;-70
2023/01/26 07:57:39;;;;;;;4.22;2.25;;;3.90;99.90;;;;;;5076412;28;20052;-70
2023/01/26 08:00:10;;;;;;;4.00;2.53;;;3.90;99.90;;;;;;5077532;28;20109;-73
2023/01/26 08:02:41;;;;;;;2.92;2.30;;;3.90;99.90;;;;;;5088096;28;20075;-70
2023/01/26 08:05:09;;;;;;;4.88;2.10;;;3.90;99.90;;;;;;5095553;28;20062;-72
2023/01/26 08:07:37;;;;;;;2.25;2.10;;;3.90;99.90;;;;;;5089132;28;20048;-72
2023/01/26 08:10:06;;;;;;;4.80;2.88;;;3.90;99.90;;;;;;5089397;28;20048;-71
2023/01/26 08:12:35;;;;;;;2.90;2.22;;;3.90;99.90;;;;;;5089414;28;20060;-71
2023/01/26 08:15:05;;;;;;;3.20;2.17;;;4.00;99.90;;;;;;5107382;28;20083;-69
2023/01/26 08:17:33;;;;;;;2.78;2.13;;;3.90;99.90;;;;;;5110197;28;20058;-72
2023/01/26 08:20:01;;;;;;;4.07;2.35;;;3.90;99.90;;;;;;5110432;28;20080;-71
2023/01/26 08:22:31;;;;;;;2.47;2.20;;;3.90;99.90;;;;;;5094547;28;20048;-71
2023/01/26 08:24:58;;;;;;;3.50;2.28;;;3.90;99.90;;;;;;5089630;28;20048;-71
2023/01/26 08:27:25;;;;;;;2.85;2.60;;;4.00;99.90;;;;;;5088507;28;20048;-72
2023/01/26 08:29:53;;;;;;;4.72;2.63;;;4.00;99.90;;;;;;5093436;28;20063;-71
2023/01/26 08:32:22;;;;;;;2.83;2.50;;;4.00;99.90;;;;;;5089661;28;20385;-72
2023/01/26 08:34:51;;;;;;;4.97;1.90;;;4.00;99.90;;;;;;5076838;28;20044;-71
2023/01/26 08:37:18;;;;;;;2.53;2.30;;;4.00;99.90;;;;;;5110515;28;20142;-71
2023/01/26 08:39:46;;;;;;;5.78;2.40;;;4.00;99.90;;;;;;5078154;28;20543;-71
2023/01/26 08:42:13;;;;;;;2.58;1.80;;;4.00;99.90;;;;;;5081934;28;20052;-72
2023/01/26 08:44:41;;;;;;;2.17;1.50;;;4.00;99.90;;;;;;5089904;28;20048;-72
2023/01/26 08:47:08;;;;;;;2.75;2.35;;;4.00;99.90;;;;;;5090132;28;20071;-70
2023/01/26 08:49:37;;;;;;;2.08;1.90;;;4.00;99.90;;;;;;5095609;28;20704;-71
2023/01/26 08:52:05;;;;;;;2.88;2.00;;;3.90;99.90;;;;;;5091856;28;20056;-71
2023/01/26 08:54:32;;;;;;;2.55;1.77;;;3.90;99.90;;;;;;5093408;28;20573;-70
2023/01/26 08:57:00;;;;;;;7.35;2.05;;;3.90;99.90;;;;;;5093492;28;20509;-70
2023/01/26 08:59:27;;;;;;;3.63;1.98;;;3.90;99.90;;;;;;5095193;28;20403;-80
2023/01/26 09:01:55;;;;;;;2.72;1.60;;;3.80;99.90;;;;;;5092792;28;20055;-78
2023/01/26 09:04:23;;;;;;;5.57;2.60;;;3.70;99.90;;;;;;5088928;28;21044;-78
2023/01/26 09:06:57;;;;;;;6.95;3.25;;;3.70;99.90;;;;;;5080147;28;20048;-78
2023/01/26 09:09:25;;;;;;;2.70;2.50;;;3.70;99.90;;;;;;5086143;28;20049;-79
2023/01/26 09:11:56;;;;;;;4.68;3.08;;;3.70;99.90;;;;;;5086573;28;20048;-78
2023/01/26 09:14:30;;;;;;;4.35;3.10;;;3.60;99.90;;;;;;5073193;28;20074;-81
2023/01/26 09:16:57;;;;;;;3.38;3.00;;;3.70;99.90;;;;;;5072528;28;20420;-80
2023/01/26 09:19:25;;;;;;;5.22;3.38;;;3.70;99.90;;;;;;5066902;28;20078;-80
2023/01/26 09:21:54;;;;;;;3.75;2.50;;;3.70;99.90;;;;;;5093151;28;20044;-80
2023/01/26 09:24:22;;;;;;;3.45;2.70;;;3.70;99.90;;;;;;5070507;28;20048;-81
2023/01/26 09:26:50;;;;;;;4.50;3.65;;;3.70;99.90;;;;;;5089964;28;20512;-81
2023/01/26 09:29:17;;;;;;;3.83;3.10;;;3.70;99.90;;;;;;5086462;28;20125;-79
2023/01/26 09:31:45;;;;;;;5.05;3.03;;;3.60;99.90;;;;;;5090465;28;20126;-79
2023/01/26 09:34:13;;;;;;;4.95;3.35;;;3.70;99.90;;;;;;5090032;28;20074;-80
2023/01/26 09:36:40;;;;;;;4.07;2.70;;;3.70;99.90;;;;;;5091590;28;20044;-79
2023/01/26 09:39:09;;;;;;;4.07;3.45;;;3.60;99.90;;;;;;5086963;28;20530;-80
2023/01/26 09:41:52;;;;;;;5.70;3.63;;;3.60;99.90;;;;;;5098613;28;20096;-81
2023/01/26 09:44:24;;;;;;;2.67;2.47;;;3.60;99.90;;;;;;5109698;28;20843;-79
2023/01/26 09:47:11;;;;;;;3.85;2.40;;;3.60;99.90;;;;;;5087339;28;20052;-80
2023/01/26 09:49:49;;;;;;;2.58;2.38;;;3.60;99.90;;;;;;5072641;28;20052;-80
2023/01/26 09:52:24;;;;;;;3.25;2.45;;;3.60;99.90;;;;;;5071207;28;20493;-79
2023/01/26 09:54:58;;;;;;;3.15;2.25;;;3.60;99.90;;;;;;5077216;28;20556;-81
2023/01/26 09:57:32;;;;;;;6.28;4.35;;;3.60;99.90;;;;;;5093058;28;20539;-80
2023/01/26 10:00:08;;;;;;;4.20;3.47;;;3.70;99.90;;;;;;5091099;28;20524;-80
2023/01/26 10:02:55;;;;;;;2.97;2.67;;;3.70;99.90;;;;;;5112334;28;20491;-80
2023/01/26 10:05:32;;;;;;;3.00;2.70;;;3.80;99.90;;;;;;5112546;28;20462;-81
2023/01/26 10:08:12;;;;;;;5.13;3.00;;;3.70;99.90;;;;;;5080333;28;20049;-73
2023/01/26 10:10:47;;;;;;;4.65;2.83;;;3.70;99.90;;;;;;5087439;28;20079;-71
2023/01/26 10:13:17;;;;;;;4.70;2.58;;;3.70;99.90;;;;;;5086978;28;20160;-79
2023/01/26 10:15:50;;;;;;;4.03;2.50;;;3.70;99.90;;;;;;5089098;28;20059;-78
2023/01/26 10:18:26;;;;;;;4.25;2.80;;;3.70;99.90;;;;;;5079041;28;20109;-81
2023/01/26 10:20:56;;;;;;;2.35;2.10;;;3.70;99.90;;;;;;5082936;28;20040;-81
2023/01/26 10:23:28;;;;;;;3.83;2.35;;;3.70;99.90;;;;;;5072424;28;20052;-79
2023/01/26 10:26:11;;;;;;;3.53;2.80;;;3.70;99.90;;;;;;5087827;28;20064;-80
2023/01/26 10:28:42;;;;;;;4.47;2.92;;;3.70;99.90;;;;;;5076998;28;20060;-80
2023/01/26 10:31:16;;;;;;;3.85;2.95;;;3.60;99.90;;;;;;5078878;28;20043;-77
2023/01/26 10:33:52;;;;;;;6.72;3.22;;;3.70;99.90;;;;;;5071241;28;20055;-78
2023/01/26 10:36:19;;;;;;;4.78;3.55;;;3.70;99.90;;;;;;5082508;28;20122;-78
2023/01/26 10:38:48;;;;;;;5.78;3.40;;;3.60;99.90;;;;;;5076156;28;20210;-79
2023/01/26 10:41:27;;;;;;;5.30;2.90;;;3.70;99.90;;;;;;5080622;28;20449;-79
2023/01/26 10:43:57;;;;;;;5.80;3.17;;;3.70;99.90;;;;;;5088277;28;20056;-79
2023/01/26 10:46:33;;;;;;;4.18;3.20;;;3.70;99.90;;;;;;5076333;28;20052;-81
2023/01/26 10:49:03;;;;;;;4.43;3.38;;;3.70;99.90;;;;;;5084352;28;20060;-78
2023/01/26 10:51:34;;;;;;;4.82;2.70;;;3.80;99.90;;;;;;5057669;28;20101;-79
2023/01/26 10:54:20;;;;;;;4.18;3.78;;;3.80;99.90;;;;;;5084864;28;20105;-83
2023/01/26 10:56:53;;;;;;;5.68;3.38;;;3.80;99.90;;;;;;5086693;28;20056;-81
2023/01/26 10:59:31;;;;;;;6.45;4.07;;;3.80;99.90;;;;;;5107140;28;20048;-81
2023/01/26 11:02:02;;;;;;;5.68;3.92;;;3.80;99.90;;;;;;5089635;28;20063;-80
2023/01/26 11:04:30;;;;;;;5.28;3.60;;;3.80;99.90;;;;;;5084555;28;20158;-79
2023/01/26 11:07:25;;;;;;;6.85;3.40;;;3.70;99.90;;;;;;5071460;28;20045;-80
2023/01/26 11:09:53;;;;;;;4.57;3.88;;;3.70;99.90;;;;;;5080388;28;20371;-79
2023/01/26 11:12:25;;;;;;;3.70;3.10;;;3.70;99.90;;;;;;5079187;28;20075;-81
2023/01/26 11:15:04;;;;;;;5.53;3.72;;;3.70;99.90;;;;;;5087546;28;20108;-80
2023/01/26 11:17:39;;;;;;;6.03;3.75;;;3.70;99.90;;;;;;5083614;28;20044;-81
2023/01/26 11:20:40;;;;;;;5.10;4.18;;;3.70;99.90;;;;;;5091419;28;20052;-81
2023/01/26 11:23:21;;;;;;;8.73;4.10;;;3.60;99.90;;;;;;5076832;28;20570;-83
2023/01/26 11:26:08;;;;;;;7.53;3.65;;;3.60;99.90;;;;;;5073446;28;20050;-79
2023/01/26 11:28:52;;;;;;;7.30;3.75;;;3.60;99.90;;;;;;5071608;28;20057;-82
2023/01/26 11:31:34;;;;;;;8.73;3.63;;;3.50;99.90;;;;;;5098674;28;20443;-81
2023/01/26 11:34:16;;;;;;;5.43;3.95;;;3.60;99.90;;;;;;5080583;28;20044;-83
2023/01/26 11:36:55;;;;;;;3.63;3.22;;;3.60;99.90;;;;;;5091170;28;20504;-80
2023/01/26 11:39:31;;;;;;;6.45;3.63;;;3.60;99.90;;;;;;5081209;28;20109;-81
2023/01/26 11:42:19;;;;;;;7.90;4.13;;;3.60;99.90;;;;;;5088707;28;20116;-79
2023/01/26 11:45:24;;;;;;;5.80;3.45;;;3.50;99.90;;;;;;5089745;28;20048;-82
2023/01/26 11:48:08;;;;;;;5.13;3.30;;;3.60;99.90;;;;;;5082634;28;20052;-80
2023/01/26 11:50:44;;;;;;;4.88;3.50;;;3.60;99.90;;;;;;5080775;28;20543;-78
2023/01/26 11:53:31;;;;;;;4.63;3.20;;;3.60;99.90;;;;;;5073508;28;20056;-78
2023/01/26 11:56:25;;;;;;;4.10;3.40;;;3.70;99.90;;;;;;5068610;28;20052;-80
2023/01/26 11:58:57;;;;;;;10.60;3.50;;;3.70;99.90;;;;;;5070172;28;20056;-71
2023/01/26 12:01:35;;;;;;;4.40;3.42;;;3.70;99.90;;;;;;5086340;28;20097;-72
2023/01/26 12:04:03;;;;;;;4.65;3.75;;;3.70;99.90;;;;;;5089609;28;20443;-71
2023/01/26 12:06:38;;;;;;;4.57;3.05;;;3.70;99.90;;;;;;5090104;28;20552;-71
2023/01/26 12:09:17;;;;;;;2.92;2.65;;;3.70;99.90;;;;;;5081982;28;20052;-71
2023/01/26 12:11:58;;;;;;;3.90;2.60;;;3.80;99.90;;;;;;5088471;28;20044;-72
2023/01/26 12:14:40;;;;;;;4.68;2.95;;;3.80;99.90;;;;;;5081089;28;20068;-71
2023/01/26 12:17:26;;;;;;;3.42;2.60;;;3.80;99.90;;;;;;5076792;28;20531;-71
2023/01/26 12:20:04;;;;;;;3.75;3.00;;;3.70;99.90;;;;;;5079387;28;20052;-72
2023/01/26 12:22:35;;;;;;;5.88;2.83;;;3.80;99.90;;;;;;5074146;28;20045;-72
2023/01/26 12:25:27;;;;;;;6.07;3.35;;;3.80;99.90;;;;;;5084021;28;20048;-71
2023/01/26 12:28:08;;;;;;;4.07;2.85;;;3.80;99.90;;;;;;5072624;28;20052;-73
2023/01/26 12:30:48;;;;;;;2.88;2.60;;;3.80;99.90;;;;;;5070727;28;20079;-71
2023/01/26 12:33:19;;;;;;;5.00;2.55;;;3.80;99.90;;;;;;5090184;28;20044;-71
2023/01/26 12:36:31;;;;;;;6.22;2.67;;;3.80;99.90;;;;;;5091122;28;20390;-72
2023/01/26 12:39:10;;;;;;;4.35;3.17;;;3.70;99.90;;;;;;5082946;28;20549;-72
2023/01/26 12:42:06;;;;;;;4.90;2.40;;;3.80;99.90;;;;;;5091961;28;20508;-73
2023/01/26 12:44:40;;;;;;;3.67;2.28;;;3.80;99.90;;;;;;5089567;28;20052;-71
2023/01/26 12:47:16;;;;;;;3.13;2.20;;;3.80;99.90;;;;;;5088055;28;20105;-72
2023/01/26 12:49:52;;;;;;;4.30;3.08;;;3.90;99.90;;;;;;5086896;28;20078;-72
2023/01/26 12:52:26;;;;;;;3.42;2.63;;;3.90;99.90;;;;;;5087373;28;20060;-73
2023/01/26 12:55:01;;;;;;;3.15;1.67;;;3.90;99.90;;;;;;5089527;28;20135;-73
2023/01/26 12:57:38;;;;;;;2.47;1.75;;;3.90;99.90;;;;;;5071518;28;20079;-71
2023/01/26 13:00:19;;;;;;;2.35;1.60;;;3.80;99.90;;;;;;5087808;28;20058;-74
2023/01/26 13:02:50;;;;;;;2.05;1.48;;;3.80;99.90;;;;;;5101550;28;20140;-70
2023/01/26 13:05:29;;;;;;;1.40;1.27;;;3.70;99.90;;;;;;5092248;28;20050;-72
2023/01/26 13:08:39;;;;;;;1.70;1.50;;;3.70;99.90;;;;;;5089358;28;20480;-71
2023/01/26 13:11:10;;;;;;;3.22;1.80;;;3.60;99.90;;;;;;5084212;28;20508;-72
2023/01/26 13:13:54;;;;;;;3.35;2.60;;;3.70;99.90;;;;;;5084320;28;20048;-72
2023/01/26 13:16:34;;;;;;;5.90;1.73;;;3.70;99.90;;;;;;5087620;28;20040;-74
2023/01/26 13:19:03;;;;;;;3.25;1.45;;;3.70;99.90;;;;;;5105912;28;20048;-76
2023/01/26 13:21:44;;;;;;;3.20;2.00;;;3.60;99.90;;;;;;5081655;28;20056;-74
2023/01/26 13:24:45;;;;;;;2.13;1.77;;;3.60;99.90;;;;;;5084299;28;20071;-76
2023/01/26 13:27:34;;;;;;;2.30;2.10;;;3.70;99.90;;;;;;5082743;28;20453;-80
2023/01/26 13:30:04;;;;;;;2.70;1.80;;;3.60;99.90;;;;;;5075291;28;20048;-79
2023/01/26 13:33:09;;;;;;;2.67;2.22;;;3.60;99.90;;;;;;5073373;28;20062;-81
2023/01/26 13:35:38;;;;;;;3.13;2.38;;;3.60;99.90;;;;;;5087085;28;20044;-79
2023/01/26 13:38:20;;;;;;;3.85;2.88;;;3.60;99.90;;;;;;5081170;28;20044;-79
2023/01/26 13:40:49;;;;;;;3.22;2.20;;;3.60;99.90;;;;;;5086197;28;20052;-79
2023/01/26 13:43:29;;;;;;;3.25;1.85;;;3.60;99.90;;;;;;5083024;28;20052;-81
2023/01/26 13:46:13;;;;;;;4.32;2.30;;;3.60;99.90;;;;;;5086854;28;20074;-81
2023/01/26 13:48:46;;;;;;;2.38;2.03;;;3.60;99.90;;;;;;5080404;28;20052;-81
2023/01/26 13:51:18;;;;;;;3.00;2.08;;;3.60;99.90;;;;;;5089781;28;20129;-83
2023/01/26 13:54:01;;;;;;;2.30;1.73;;;3.60;99.90;;;;;;5085971;28;20526;-80
2023/01/26 13:56:33;;;;;;;2.38;2.17;;;3.60;99.90;;;;;;5086165;28;20310;-78
2023/01/26 13:59:08;;;;;;;2.50;2.30;;;3.60;99.90;;;;;;5092925;28;20357;-83
2023/01/26 14:01:42;;;;;;;3.95;2.22;;;3.60;99.90;;;;;;5100980;28;20135;-81
2023/01/26 14:04:16;;;;;;;2.20;2.03;;;3.60;99.90;;;;;;5084988;28;20097;-80
2023/01/26 14:06:49;;;;;;;4.80;1.73;;;3.60;99.90;;;;;;5079295;28;20495;-72
2023/01/26 14:09:19;;;;;;;1.55;1.40;;;3.60;99.90;;;;;;5077585;28;20156;-71
2023/01/26 14:11:57;;;;;;;1.70;1.42;;;3.60;99.90;;;;;;5086074;28;20493;-73
2023/01/26 14:14:27;;;;;;;2.13;1.58;;;3.60;99.90;;;;;;5102237;28;20077;-72
2023/01/26 14:16:57;;;;;;;2.25;1.40;;;3.60;99.90;;;;;;5089678;28;20146;-71
2023/01/26 14:19:26;;;;;;;1.83;1.73;;;3.60;99.90;;;;;;5088103;28;20154;-70